createdAt,value
2022-07-28T00:00:01.957Z,16.30
2022-07-28T00:02:28.955Z,16.30
2022-07-28T00:04:55.731Z,16.20
2022-07-28T00:07:22.407Z,16.20
2022-07-28T00:09:49.036Z,16.20
2022-07-28T00:12:15.743Z,16.20
2022-07-28T00:14:42.438Z,16.10
2022-07-28T00:17:09.665Z,16.10
2022-07-28T00:19:36.498Z,16.10
2022-07-28T00:22:04.579Z,16.10
2022-07-28T00:24:31.774Z,16.10
2022-07-28T00:26:58.540Z,16.10
2022-07-28T00:29:25.312Z,16.00
2022-07-28T00:32:11.937Z,16.00
2022-07-28T00:34:38.952Z,16.00
2022-07-28T00:37:08.547Z,16.00
2022-07-28T00:39:40.377Z,16.00
2022-07-28T00:42:07.188Z,16.00
2022-07-28T00:44:33.823Z,15.90
2022-07-28T00:47:00.563Z,15.90
2022-07-28T00:49:27.348Z,15.90
2022-07-28T00:51:54.556Z,15.80
2022-07-28T00:54:21.251Z,15.80
2022-07-28T00:56:47.999Z,15.70
2022-07-28T00:59:14.635Z,15.70
2022-07-28T01:01:41.410Z,15.70
2022-07-28T01:04:08.225Z,15.70
2022-07-28T01:07:02.585Z,15.60
2022-07-28T01:09:50.735Z,15.60
2022-07-28T01:12:32.960Z,15.50
2022-07-28T01:15:19.118Z,15.50
2022-07-28T01:18:11.288Z,15.50
2022-07-28T01:21:01.675Z,15.40
2022-07-28T01:23:38.304Z,15.40
2022-07-28T01:26:39.799Z,15.30
2022-07-28T01:29:21.730Z,15.30
2022-07-28T01:31:53.872Z,15.30
2022-07-28T01:34:28.311Z,15.30
2022-07-28T01:37:13.205Z,15.20
2022-07-28T01:39:42.678Z,15.20
2022-07-28T01:42:12.128Z,15.20
2022-07-28T01:44:43.019Z,15.10
2022-07-28T01:47:11.631Z,15.10
2022-07-28T01:49:39.245Z,15.10
2022-07-28T01:52:08.505Z,15.00
2022-07-28T01:54:38.554Z,15.00
2022-07-28T01:57:08.028Z,14.90
2022-07-28T01:59:38.354Z,14.90
2022-07-28T02:02:05.896Z,14.90
2022-07-28T02:04:34.282Z,14.90
2022-07-28T02:07:02.615Z,14.80
2022-07-28T02:09:31.893Z,14.80
2022-07-28T02:12:00.698Z,14.80
2022-07-28T02:14:28.604Z,14.80
2022-07-28T02:17:01.756Z,14.80
2022-07-28T02:19:30.690Z,14.70
2022-07-28T02:21:57.549Z,14.70
2022-07-28T02:24:28.604Z,14.70
2022-07-28T02:27:08.596Z,14.70
2022-07-28T02:29:52.018Z,14.70
2022-07-28T02:32:28.605Z,14.70
2022-07-28T02:35:05.169Z,14.60
2022-07-28T02:37:36.663Z,14.60
2022-07-28T02:40:05.980Z,14.70
2022-07-28T02:42:35.789Z,14.70
2022-07-28T02:45:06.751Z,14.70
2022-07-28T02:47:40.058Z,14.70
2022-07-28T02:50:08.630Z,14.60
2022-07-28T02:52:36.396Z,14.60
2022-07-28T02:55:03.824Z,14.50
2022-07-28T02:57:31.884Z,14.50
2022-07-28T02:59:58.879Z,14.50
2022-07-28T03:02:26.637Z,14.50
2022-07-28T03:05:00.729Z,14.40
2022-07-28T03:07:32.807Z,14.40
2022-07-28T03:10:00.194Z,14.40
2022-07-28T03:12:27.176Z,14.30
2022-07-28T03:14:53.921Z,14.30
2022-07-28T03:17:20.789Z,14.30
2022-07-28T03:19:47.490Z,14.30
2022-07-28T03:22:14.801Z,14.30
2022-07-28T03:24:50.849Z,14.20
2022-07-28T03:27:26.061Z,14.20
2022-07-28T03:30:03.672Z,14.20
2022-07-28T03:32:33.032Z,14.20
2022-07-28T03:35:00.075Z,14.20
2022-07-28T03:37:53.262Z,14.20
2022-07-28T03:40:21.281Z,14.10
2022-07-28T03:42:52.024Z,14.10
2022-07-28T03:45:19.020Z,14.10
2022-07-28T03:47:53.877Z,14.10
2022-07-28T03:50:28.497Z,14.10
2022-07-28T03:52:56.119Z,14.10
2022-07-28T03:55:23.045Z,14.10
2022-07-28T03:57:49.882Z,14.00
2022-07-28T04:00:17.277Z,14.10
2022-07-28T04:02:45.666Z,14.10
2022-07-28T04:05:17.405Z,14.00
2022-07-28T04:07:45.980Z,14.00
2022-07-28T04:10:15.575Z,14.00
2022-07-28T04:12:53.478Z,14.00
2022-07-28T04:15:20.363Z,13.90
2022-07-28T04:17:49.126Z,14.00
2022-07-28T04:20:17.592Z,14.00
2022-07-28T04:22:48.699Z,13.90
2022-07-28T04:25:18.510Z,14.00
2022-07-28T04:27:45.296Z,14.00
2022-07-28T04:30:17.674Z,14.00
2022-07-28T04:32:45.726Z,14.00
2022-07-28T04:35:17.307Z,14.00
2022-07-28T04:37:44.681Z,14.00
2022-07-28T04:40:13.023Z,14.00
2022-07-28T04:42:40.054Z,14.00
2022-07-28T04:45:08.355Z,14.00
2022-07-28T04:47:35.393Z,14.10
2022-07-28T04:50:02.093Z,14.10
2022-07-28T04:52:28.775Z,14.10
2022-07-28T04:54:55.444Z,14.10
2022-07-28T04:57:22.403Z,14.10
2022-07-28T04:59:54.240Z,14.10
2022-07-28T05:02:23.516Z,14.20
2022-07-28T05:04:50.221Z,14.20
2022-07-28T05:07:17.023Z,14.20
2022-07-28T05:09:43.678Z,14.20
2022-07-28T05:12:10.449Z,14.20
2022-07-28T05:14:37.150Z,14.20
2022-07-28T05:17:03.847Z,14.20
2022-07-28T05:19:30.473Z,14.20
2022-07-28T05:21:57.080Z,14.20
2022-07-28T05:24:23.683Z,14.20
2022-07-28T05:26:50.302Z,14.20
2022-07-28T05:29:17.011Z,14.20
2022-07-28T05:31:43.705Z,14.20
2022-07-28T05:34:11.308Z,14.30
2022-07-28T05:36:41.076Z,14.30
2022-07-28T05:39:08.902Z,14.30
2022-07-28T05:41:35.949Z,14.40
2022-07-28T05:44:03.140Z,14.40
2022-07-28T05:46:31.495Z,14.50
2022-07-28T05:49:02.032Z,14.50
2022-07-28T05:51:41.834Z,14.50
2022-07-28T05:54:09.396Z,14.60
2022-07-28T05:59:19.033Z,14.70
2022-07-28T06:01:46.060Z,14.80
2022-07-28T06:04:28.930Z,14.80
2022-07-28T06:06:56.217Z,14.90
2022-07-28T06:09:22.963Z,15.00
2022-07-28T06:11:50.713Z,15.10
2022-07-28T06:17:08.285Z,15.20
2022-07-28T06:19:35.230Z,15.30
2022-07-28T06:22:03.657Z,15.40
2022-07-28T06:24:30.576Z,15.40
2022-07-28T06:26:57.282Z,15.50
2022-07-28T06:29:24.520Z,15.60
2022-07-28T06:31:51.305Z,15.70
2022-07-28T06:34:17.999Z,15.70
2022-07-28T06:36:44.829Z,15.80
2022-07-28T06:39:12.311Z,15.80
2022-07-28T06:41:44.401Z,15.90
2022-07-28T06:44:12.431Z,16.00
2022-07-28T06:46:39.369Z,16.00
2022-07-28T06:49:06.333Z,16.10
2022-07-28T06:51:33.423Z,16.10
2022-07-28T06:54:10.739Z,16.20
2022-07-28T06:56:38.100Z,16.20
2022-07-28T06:59:04.816Z,16.20
2022-07-28T07:01:31.509Z,16.30
2022-07-28T07:03:58.418Z,16.30
2022-07-28T07:06:25.097Z,16.30
2022-07-28T07:08:51.865Z,16.30
2022-07-28T07:11:19.706Z,16.30
2022-07-28T07:13:56.285Z,16.30
2022-07-28T07:16:23.409Z,16.40
2022-07-28T07:19:01.801Z,16.50
2022-07-28T07:21:53.012Z,16.50
2022-07-28T07:24:58.055Z,16.60
2022-07-28T07:27:48.154Z,16.60
2022-07-28T07:30:24.111Z,16.70
2022-07-28T07:32:54.596Z,16.70
2022-07-28T07:38:18.853Z,16.80
2022-07-28T07:41:10.308Z,16.90
2022-07-28T07:43:59.652Z,16.90
2022-07-28T07:57:29.233Z,17.30
2022-07-28T08:00:27.951Z,17.40
2022-07-28T08:07:35.785Z,17.50
2022-07-28T08:43:27.649Z,18.50
2022-07-28T09:00:01.677Z,19.10
2022-07-28T09:05:42.561Z,19.20
2022-07-28T09:12:33.642Z,19.50
2022-07-28T09:35:03.841Z,19.80
2022-07-28T09:51:44.744Z,20.60
2022-07-28T09:54:48.266Z,20.70
2022-07-28T09:58:06.203Z,20.80
2022-07-28T10:01:39.419Z,20.90
2022-07-28T10:08:24.367Z,20.90
2022-07-28T10:33:40.249Z,21.60
2022-07-28T10:39:32.709Z,21.80
2022-07-28T10:42:08.532Z,21.90
2022-07-28T10:48:31.666Z,22.00
2022-07-28T10:52:02.591Z,22.00
2022-07-28T11:36:04.642Z,22.80
2022-07-28T11:43:56.612Z,22.90
2022-07-28T11:46:59.536Z,22.90
2022-07-28T12:02:02.638Z,23.30
2022-07-28T12:17:01.818Z,23.30
2022-07-28T12:53:37.980Z,23.90
2022-07-28T13:00:07.126Z,24.20
2022-07-28T13:12:38.613Z,24.50
2022-07-28T13:19:57.699Z,24.90
2022-07-28T13:23:27.422Z,25.20
2022-07-28T13:26:11.725Z,25.30
2022-07-28T13:28:47.603Z,25.30
2022-07-28T13:35:19.088Z,25.40
2022-07-28T13:38:23.118Z,25.50
2022-07-28T13:41:58.273Z,25.60
2022-07-28T13:45:30.276Z,25.60
2022-07-28T13:54:58.588Z,25.70
2022-07-28T13:57:26.853Z,25.70
2022-07-28T14:54:57.968Z,26.40
2022-07-28T14:57:54.943Z,26.70
2022-07-28T15:09:07.740Z,27.00
2022-07-28T15:11:42.488Z,27.10
2022-07-28T15:14:21.250Z,27.10
2022-07-28T15:17:12.999Z,27.00
2022-07-28T15:19:47.602Z,27.00
2022-07-28T15:28:32.118Z,26.80
2022-07-28T15:44:17.768Z,25.80
2022-07-28T15:47:16.981Z,25.60
2022-07-28T15:49:59.822Z,25.50
2022-07-28T15:52:29.498Z,25.30
2022-07-28T15:58:08.931Z,25.10
2022-07-28T16:03:30.839Z,25.00
2022-07-28T16:05:58.733Z,25.00
2022-07-28T16:08:25.857Z,24.90
2022-07-28T16:10:54.484Z,24.80
2022-07-28T16:13:35.697Z,24.70
2022-07-28T16:16:09.645Z,24.70
2022-07-28T16:18:38.892Z,24.70
2022-07-28T16:21:06.585Z,24.60
2022-07-28T16:23:36.686Z,24.50
2022-07-28T16:26:07.534Z,24.50
2022-07-28T16:28:34.226Z,24.40
2022-07-28T16:31:01.089Z,24.30
2022-07-28T16:33:28.016Z,24.30
2022-07-28T16:36:01.220Z,24.20
2022-07-28T16:38:27.969Z,24.10
2022-07-28T16:40:58.080Z,24.10
2022-07-28T16:47:10.932Z,24.00
2022-07-28T16:52:25.016Z,23.60
2022-07-28T17:03:52.070Z,23.40
2022-07-28T17:06:23.679Z,23.30
2022-07-28T17:08:58.996Z,23.30
2022-07-28T17:14:26.096Z,23.30
2022-07-28T17:21:47.843Z,23.20
2022-07-28T17:29:51.666Z,23.10
2022-07-28T17:38:08.258Z,23.00
2022-07-28T17:40:40.956Z,23.00
2022-07-28T17:43:11.703Z,22.90
2022-07-28T17:45:38.372Z,22.90
2022-07-28T17:48:05.323Z,22.80
2022-07-28T17:50:31.953Z,22.80
2022-07-28T17:52:58.553Z,22.80
2022-07-28T17:55:40.785Z,22.70
2022-07-28T17:58:28.081Z,22.60
2022-07-28T18:01:10.319Z,22.60
2022-07-28T18:03:58.332Z,22.60
2022-07-28T18:06:29.291Z,22.60
2022-07-28T18:08:56.014Z,22.50
2022-07-28T18:11:22.612Z,22.40
2022-07-28T18:14:04.111Z,22.50
2022-07-28T18:16:34.747Z,22.40
2022-07-28T18:19:02.308Z,22.40
2022-07-28T18:21:29.448Z,22.40
2022-07-28T18:23:56.176Z,22.40
2022-07-28T18:26:22.802Z,22.30
2022-07-28T18:28:49.691Z,22.30
2022-07-28T18:31:16.389Z,22.30
2022-07-28T18:33:45.588Z,22.30
2022-07-28T18:36:12.235Z,22.20
2022-07-28T18:38:38.990Z,22.10
2022-07-28T18:41:05.611Z,22.10
2022-07-28T18:43:32.267Z,22.10
2022-07-28T18:45:58.915Z,22.00
2022-07-28T18:48:25.763Z,22.00
2022-07-28T18:50:52.512Z,21.90
2022-07-28T18:53:19.392Z,21.90
2022-07-28T18:55:46.097Z,21.90
2022-07-28T18:58:12.717Z,21.80
2022-07-28T19:00:39.480Z,21.80
2022-07-28T19:03:06.205Z,21.80
2022-07-28T19:05:36.862Z,21.70
2022-07-28T19:08:05.024Z,21.70
2022-07-28T19:10:32.352Z,21.70
2022-07-28T19:12:59.562Z,21.60
2022-07-28T19:15:26.297Z,21.50
2022-07-28T19:18:10.254Z,21.50
2022-07-28T19:20:39.454Z,21.40
2022-07-28T19:23:06.123Z,21.40
2022-07-28T19:25:35.488Z,21.30
2022-07-28T19:28:02.142Z,21.30
2022-07-28T19:30:30.228Z,21.20
2022-07-28T19:32:56.864Z,21.20
2022-07-28T19:35:23.602Z,21.20
2022-07-28T19:37:53.197Z,21.10
2022-07-28T19:40:22.223Z,21.10
2022-07-28T19:42:48.909Z,21.10
2022-07-28T19:45:16.556Z,21.00
2022-07-28T19:47:43.504Z,21.00
2022-07-28T19:50:10.252Z,21.00
2022-07-28T19:52:37.435Z,21.00
2022-07-28T19:55:06.036Z,20.90
2022-07-28T19:57:33.339Z,20.80
2022-07-28T20:00:01.898Z,20.80
2022-07-28T20:02:29.440Z,20.80
2022-07-28T20:04:56.109Z,20.80
2022-07-28T20:07:24.120Z,20.70
2022-07-28T20:09:50.938Z,20.70
2022-07-28T20:12:17.928Z,20.60
2022-07-28T20:14:44.521Z,20.60
2022-07-28T20:17:24.365Z,20.60
2022-07-28T20:19:57.849Z,20.50
2022-07-28T20:22:25.069Z,20.40
2022-07-28T20:24:51.821Z,20.40
2022-07-28T20:27:18.432Z,20.30
2022-07-28T20:29:45.108Z,20.30
2022-07-28T20:32:11.798Z,20.20
2022-07-28T20:34:39.919Z,20.20
2022-07-28T20:37:18.900Z,20.20
2022-07-28T20:39:56.624Z,20.20
2022-07-28T20:42:23.416Z,20.10
2022-07-28T20:44:50.543Z,20.10
2022-07-28T20:47:17.152Z,20.10
2022-07-28T20:49:43.730Z,20.10
2022-07-28T20:52:10.359Z,20.10
2022-07-28T20:54:36.943Z,20.10
2022-07-28T20:57:03.767Z,20.00
2022-07-28T20:59:30.484Z,20.00
2022-07-28T21:01:57.535Z,20.00
2022-07-28T21:04:27.186Z,20.00
2022-07-28T21:07:01.701Z,20.00
2022-07-28T21:09:29.374Z,19.90
2022-07-28T21:12:02.540Z,19.90
2022-07-28T21:17:23.993Z,19.80
2022-07-28T21:20:01.806Z,19.80
2022-07-28T21:22:28.415Z,19.80
2022-07-28T21:24:55.762Z,19.80
2022-07-28T21:27:35.452Z,19.70
2022-07-28T21:30:02.188Z,19.70
2022-07-28T21:32:28.821Z,19.70
2022-07-28T21:34:55.576Z,19.70
2022-07-28T21:37:22.170Z,19.60
2022-07-28T21:39:49.000Z,19.60
2022-07-28T21:42:15.668Z,19.60
2022-07-28T21:44:42.263Z,19.60
2022-07-28T21:47:08.901Z,19.50
2022-07-28T21:49:35.509Z,19.50
2022-07-28T21:52:02.304Z,19.50
2022-07-28T21:54:28.976Z,19.50
2022-07-28T21:56:55.600Z,19.50
2022-07-28T21:59:22.255Z,19.40
2022-07-28T22:01:49.014Z,19.40
2022-07-28T22:04:16.138Z,19.40
2022-07-28T22:06:46.070Z,19.40
2022-07-28T22:09:13.082Z,19.40
2022-07-28T22:11:39.768Z,19.30
2022-07-28T22:14:06.397Z,19.30
2022-07-28T22:16:33.100Z,19.30
2022-07-28T22:18:59.789Z,19.30
2022-07-28T22:21:26.409Z,19.20
2022-07-28T22:23:55.139Z,19.20
2022-07-28T22:26:21.757Z,19.20
2022-07-28T22:28:48.524Z,19.10
2022-07-28T22:31:17.711Z,19.10
2022-07-28T22:33:44.693Z,19.10
2022-07-28T22:36:11.471Z,19.00
2022-07-28T22:38:38.833Z,19.00
2022-07-28T22:41:05.640Z,19.00
2022-07-28T22:43:33.695Z,19.00
2022-07-28T22:46:00.557Z,19.00
2022-07-28T22:51:16.516Z,18.90
2022-07-28T22:53:43.438Z,18.90
2022-07-28T22:58:59.244Z,18.80
2022-07-28T23:07:51.024Z,18.70
2022-07-28T23:10:17.790Z,18.60
2022-07-28T23:12:44.548Z,18.60
2022-07-28T23:15:11.319Z,18.60
2022-07-28T23:17:38.003Z,18.50
2022-07-28T23:20:05.678Z,18.50
2022-07-28T23:22:32.423Z,18.60
2022-07-28T23:24:59.086Z,18.50
2022-07-28T23:27:25.868Z,18.50
2022-07-28T23:29:52.578Z,18.50
2022-07-28T23:32:19.269Z,18.50
2022-07-28T23:34:45.920Z,18.40
2022-07-28T23:37:13.358Z,18.40
2022-07-28T23:39:40.047Z,18.40
2022-07-28T23:42:06.797Z,18.40
2022-07-28T23:44:33.535Z,18.40
2022-07-28T23:47:00.338Z,18.30
2022-07-28T23:49:27.123Z,18.30
2022-07-28T23:51:53.859Z,18.30
2022-07-28T23:54:20.568Z,18.30
2022-07-28T23:56:51.144Z,18.30
2022-07-28T23:59:17.872Z,18.20
